sensor_id;sensor_type;location;lat;lon;timestamp;P1;durP1;ratioP1;P2;durP2;ratioP2
6825;SDS011;3451;52.476;13.316;2022-12-08T00:00:20;10.00;;;5.20;;
6825;SDS011;3451;52.476;13.316;2022-12-08T00:02:47;8.47;;;4.73;;
6825;SDS011;3451;52.476;13.316;2022-12-08T00:05:13;8.60;;;4.30;;
6825;SDS011;3451;52.476;13.316;2022-12-08T00:07:58;9.27;;;4.90;;
6825;SDS011;3451;52.476;13.316;2022-12-08T00:10:43;10.60;;;4.60;;
6825;SDS011;3451;52.476;13.316;2022-12-08T00:13:15;9.00;;;4.50;;
6825;SDS011;3451;52.476;13.316;2022-12-08T00:15:41;7.10;;;4.90;;
6825;SDS011;3451;52.476;13.316;2022-12-08T00:18:07;8.07;;;4.63;;
6825;SDS011;3451;52.476;13.316;2022-12-08T00:20:34;10.80;;;4.93;;
6825;SDS011;3451;52.476;13.316;2022-12-08T00:23:00;9.00;;;4.60;;
6825;SDS011;3451;52.476;13.316;2022-12-08T00:25:26;9.17;;;4.83;;
6825;SDS011;3451;52.476;13.316;2022-12-08T00:27:52;11.60;;;4.87;;
6825;SDS011;3451;52.476;13.316;2022-12-08T00:30:19;13.97;;;5.50;;
6825;SDS011;3451;52.476;13.316;2022-12-08T00:32:45;10.13;;;5.27;;
6825;SDS011;3451;52.476;13.316;2022-12-08T00:35:11;12.97;;;5.40;;
6825;SDS011;3451;52.476;13.316;2022-12-08T00:37:37;9.27;;;4.57;;
6825;SDS011;3451;52.476;13.316;2022-12-08T00:40:04;12.83;;;6.00;;
6825;SDS011;3451;52.476;13.316;2022-12-08T00:42:31;10.80;;;4.87;;
6825;SDS011;3451;52.476;13.316;2022-12-08T00:44:58;10.07;;;5.33;;
6825;SDS011;3451;52.476;13.316;2022-12-08T00:47:25;11.13;;;5.50;;
6825;SDS011;3451;52.476;13.316;2022-12-08T00:49:51;11.50;;;6.13;;
6825;SDS011;3451;52.476;13.316;2022-12-08T00:52:17;10.87;;;6.17;;
6825;SDS011;3451;52.476;13.316;2022-12-08T00:54:43;10.47;;;5.50;;
6825;SDS011;3451;52.476;13.316;2022-12-08T00:57:10;12.43;;;5.97;;
6825;SDS011;3451;52.476;13.316;2022-12-08T00:59:36;18.03;;;6.77;;
6825;SDS011;3451;52.476;13.316;2022-12-08T01:02:02;15.63;;;5.60;;
6825;SDS011;3451;52.476;13.316;2022-12-08T01:04:29;11.83;;;5.60;;
6825;SDS011;3451;52.476;13.316;2022-12-08T01:06:55;9.63;;;5.60;;
6825;SDS011;3451;52.476;13.316;2022-12-08T01:09:21;12.40;;;6.37;;
6825;SDS011;3451;52.476;13.316;2022-12-08T01:11:47;11.30;;;5.60;;
6825;SDS011;3451;52.476;13.316;2022-12-08T01:14:14;11.03;;;5.33;;
6825;SDS011;3451;52.476;13.316;2022-12-08T01:16:40;9.83;;;5.43;;
6825;SDS011;3451;52.476;13.316;2022-12-08T01:19:08;10.47;;;5.10;;
6825;SDS011;3451;52.476;13.316;2022-12-08T01:21:35;9.37;;;5.43;;
6825;SDS011;3451;52.476;13.316;2022-12-08T01:24:02;10.57;;;5.87;;
6825;SDS011;3451;52.476;13.316;2022-12-08T01:26:28;11.47;;;5.63;;
6825;SDS011;3451;52.476;13.316;2022-12-08T01:28:54;9.63;;;5.70;;
6825;SDS011;3451;52.476;13.316;2022-12-08T01:31:21;10.17;;;5.73;;
6825;SDS011;3451;52.476;13.316;2022-12-08T01:33:47;7.63;;;5.30;;
6825;SDS011;3451;52.476;13.316;2022-12-08T01:36:21;10.90;;;5.37;;
6825;SDS011;3451;52.476;13.316;2022-12-08T01:38:48;9.07;;;5.13;;
6825;SDS011;3451;52.476;13.316;2022-12-08T01:41:16;8.70;;;5.73;;
6825;SDS011;3451;52.476;13.316;2022-12-08T01:43:50;9.57;;;6.10;;
6825;SDS011;3451;52.476;13.316;2022-12-08T01:46:19;8.93;;;5.13;;
6825;SDS011;3451;52.476;13.316;2022-12-08T01:48:45;10.00;;;5.83;;
6825;SDS011;3451;52.476;13.316;2022-12-08T01:51:13;10.87;;;5.67;;
6825;SDS011;3451;52.476;13.316;2022-12-08T01:53:39;9.60;;;5.90;;
6825;SDS011;3451;52.476;13.316;2022-12-08T01:56:06;9.37;;;6.07;;
6825;SDS011;3451;52.476;13.316;2022-12-08T01:58:34;9.67;;;5.60;;
6825;SDS011;3451;52.476;13.316;2022-12-08T02:01:02;8.13;;;5.43;;
6825;SDS011;3451;52.476;13.316;2022-12-08T02:06:04;12.73;;;6.37;;
6825;SDS011;3451;52.476;13.316;2022-12-08T02:08:30;12.40;;;6.83;;
6825;SDS011;3451;52.476;13.316;2022-12-08T02:10:57;10.70;;;6.20;;
6825;SDS011;3451;52.476;13.316;2022-12-08T02:13:23;11.00;;;6.17;;
6825;SDS011;3451;52.476;13.316;2022-12-08T02:24:44;11.17;;;5.87;;
6825;SDS011;3451;52.476;13.316;2022-12-08T02:27:27;9.60;;;5.77;;
6825;SDS011;3451;52.476;13.316;2022-12-08T02:35:05;9.07;;;5.50;;
6825;SDS011;3451;52.476;13.316;2022-12-08T02:37:37;11.50;;;5.83;;
6825;SDS011;3451;52.476;13.316;2022-12-08T02:42:37;8.97;;;5.73;;
6825;SDS011;3451;52.476;13.316;2022-12-08T02:45:10;9.87;;;5.47;;
6825;SDS011;3451;52.476;13.316;2022-12-08T02:47:38;8.37;;;5.47;;
6825;SDS011;3451;52.476;13.316;2022-12-08T02:50:05;9.50;;;5.27;;
6825;SDS011;3451;52.476;13.316;2022-12-08T02:55:02;8.47;;;5.13;;
6825;SDS011;3451;52.476;13.316;2022-12-08T02:57:42;8.60;;;5.30;;
6825;SDS011;3451;52.476;13.316;2022-12-08T03:00:14;7.67;;;5.07;;
6825;SDS011;3451;52.476;13.316;2022-12-08T03:05:30;7.07;;;4.40;;
6825;SDS011;3451;52.476;13.316;2022-12-08T03:10:42;7.30;;;4.47;;
6825;SDS011;3451;52.476;13.316;2022-12-08T03:13:14;6.20;;;3.83;;
6825;SDS011;3451;52.476;13.316;2022-12-08T03:15:42;7.87;;;4.67;;
6825;SDS011;3451;52.476;13.316;2022-12-08T03:18:11;7.47;;;4.60;;
6825;SDS011;3451;52.476;13.316;2022-12-08T03:20:39;7.77;;;4.43;;
6825;SDS011;3451;52.476;13.316;2022-12-08T03:23:07;8.10;;;4.77;;
6825;SDS011;3451;52.476;13.316;2022-12-08T03:25:35;6.90;;;4.40;;
6825;SDS011;3451;52.476;13.316;2022-12-08T03:28:04;8.07;;;4.83;;
6825;SDS011;3451;52.476;13.316;2022-12-08T03:30:31;6.77;;;3.70;;
6825;SDS011;3451;52.476;13.316;2022-12-08T03:33:01;7.00;;;4.50;;
6825;SDS011;3451;52.476;13.316;2022-12-08T03:35:28;7.23;;;4.40;;
6825;SDS011;3451;52.476;13.316;2022-12-08T03:38:02;7.63;;;4.30;;
6825;SDS011;3451;52.476;13.316;2022-12-08T03:40:28;6.23;;;4.33;;
6825;SDS011;3451;52.476;13.316;2022-12-08T03:42:55;7.30;;;4.80;;
6825;SDS011;3451;52.476;13.316;2022-12-08T03:45:21;6.97;;;4.57;;
6825;SDS011;3451;52.476;13.316;2022-12-08T03:47:47;7.07;;;4.30;;
6825;SDS011;3451;52.476;13.316;2022-12-08T03:50:13;7.00;;;4.63;;
6825;SDS011;3451;52.476;13.316;2022-12-08T03:52:40;9.43;;;5.67;;
6825;SDS011;3451;52.476;13.316;2022-12-08T03:55:06;7.80;;;5.27;;
6825;SDS011;3451;52.476;13.316;2022-12-08T03:57:32;9.43;;;5.53;;
6825;SDS011;3451;52.476;13.316;2022-12-08T03:59:59;13.13;;;5.73;;
6825;SDS011;3451;52.476;13.316;2022-12-08T04:02:25;8.23;;;5.70;;
6825;SDS011;3451;52.476;13.316;2022-12-08T04:04:51;8.73;;;6.40;;
6825;SDS011;3451;52.476;13.316;2022-12-08T04:07:17;11.43;;;6.50;;
6825;SDS011;3451;52.476;13.316;2022-12-08T04:09:44;11.50;;;6.97;;
6825;SDS011;3451;52.476;13.316;2022-12-08T04:12:10;9.97;;;6.57;;
6825;SDS011;3451;52.476;13.316;2022-12-08T04:14:36;10.07;;;6.37;;
6825;SDS011;3451;52.476;13.316;2022-12-08T04:17:03;11.23;;;6.97;;
6825;SDS011;3451;52.476;13.316;2022-12-08T04:19:29;11.03;;;6.73;;
6825;SDS011;3451;52.476;13.316;2022-12-08T04:21:55;8.80;;;6.40;;
6825;SDS011;3451;52.476;13.316;2022-12-08T04:24:21;10.90;;;7.03;;
6825;SDS011;3451;52.476;13.316;2022-12-08T04:26:48;11.53;;;7.50;;
6825;SDS011;3451;52.476;13.316;2022-12-08T04:29:17;10.63;;;6.87;;
6825;SDS011;3451;52.476;13.316;2022-12-08T04:31:43;12.13;;;7.37;;
6825;SDS011;3451;52.476;13.316;2022-12-08T04:34:09;11.40;;;7.10;;
6825;SDS011;3451;52.476;13.316;2022-12-08T04:36:36;12.10;;;7.53;;
6825;SDS011;3451;52.476;13.316;2022-12-08T04:39:03;10.73;;;6.83;;
6825;SDS011;3451;52.476;13.316;2022-12-08T04:41:29;11.80;;;7.83;;
6825;SDS011;3451;52.476;13.316;2022-12-08T04:43:55;12.63;;;8.20;;
6825;SDS011;3451;52.476;13.316;2022-12-08T04:46:22;14.10;;;8.33;;
6825;SDS011;3451;52.476;13.316;2022-12-08T04:48:48;12.30;;;7.80;;
6825;SDS011;3451;52.476;13.316;2022-12-08T04:51:17;15.03;;;8.00;;
6825;SDS011;3451;52.476;13.316;2022-12-08T04:53:44;12.40;;;8.07;;
6825;SDS011;3451;52.476;13.316;2022-12-08T04:56:12;14.33;;;8.70;;
6825;SDS011;3451;52.476;13.316;2022-12-08T04:58:39;15.23;;;8.93;;
6825;SDS011;3451;52.476;13.316;2022-12-08T05:01:05;14.20;;;8.07;;
6825;SDS011;3451;52.476;13.316;2022-12-08T05:03:32;12.50;;;8.30;;
6825;SDS011;3451;52.476;13.316;2022-12-08T05:05:58;13.47;;;7.97;;
6825;SDS011;3451;52.476;13.316;2022-12-08T05:08:25;13.33;;;8.80;;
6825;SDS011;3451;52.476;13.316;2022-12-08T05:10:51;14.13;;;8.50;;
6825;SDS011;3451;52.476;13.316;2022-12-08T05:13:17;15.10;;;8.67;;
6825;SDS011;3451;52.476;13.316;2022-12-08T05:15:44;15.40;;;9.80;;
6825;SDS011;3451;52.476;13.316;2022-12-08T05:18:10;16.47;;;9.07;;
6825;SDS011;3451;52.476;13.316;2022-12-08T05:20:36;16.80;;;9.70;;
6825;SDS011;3451;52.476;13.316;2022-12-08T05:23:02;15.57;;;9.47;;
6825;SDS011;3451;52.476;13.316;2022-12-08T05:25:29;20.30;;;9.90;;
6825;SDS011;3451;52.476;13.316;2022-12-08T05:27:55;16.77;;;9.43;;
6825;SDS011;3451;52.476;13.316;2022-12-08T05:30:42;16.40;;;9.57;;
6825;SDS011;3451;52.476;13.316;2022-12-08T05:33:08;15.63;;;9.13;;
6825;SDS011;3451;52.476;13.316;2022-12-08T05:35:34;18.73;;;9.27;;
6825;SDS011;3451;52.476;13.316;2022-12-08T05:38:01;17.10;;;10.03;;
6825;SDS011;3451;52.476;13.316;2022-12-08T05:40:27;19.50;;;10.20;;
6825;SDS011;3451;52.476;13.316;2022-12-08T05:42:53;19.13;;;10.63;;
6825;SDS011;3451;52.476;13.316;2022-12-08T05:45:20;18.03;;;10.30;;
6825;SDS011;3451;52.476;13.316;2022-12-08T05:47:46;17.93;;;9.73;;
6825;SDS011;3451;52.476;13.316;2022-12-08T05:50:12;19.43;;;10.10;;
6825;SDS011;3451;52.476;13.316;2022-12-08T05:52:38;18.37;;;10.63;;
6825;SDS011;3451;52.476;13.316;2022-12-08T05:55:05;17.83;;;10.23;;
6825;SDS011;3451;52.476;13.316;2022-12-08T05:57:31;18.23;;;10.17;;
6825;SDS011;3451;52.476;13.316;2022-12-08T05:59:57;18.90;;;10.73;;
6825;SDS011;3451;52.476;13.316;2022-12-08T06:02:25;21.07;;;10.30;;
6825;SDS011;3451;52.476;13.316;2022-12-08T06:04:51;19.67;;;10.40;;
6825;SDS011;3451;52.476;13.316;2022-12-08T06:07:17;17.37;;;9.70;;
6825;SDS011;3451;52.476;13.316;2022-12-08T06:09:44;16.13;;;10.00;;
6825;SDS011;3451;52.476;13.316;2022-12-08T06:12:10;18.97;;;10.23;;
6825;SDS011;3451;52.476;13.316;2022-12-08T06:14:39;21.80;;;10.07;;
6825;SDS011;3451;52.476;13.316;2022-12-08T06:17:06;23.07;;;9.90;;
6825;SDS011;3451;52.476;13.316;2022-12-08T06:19:32;18.03;;;10.63;;
6825;SDS011;3451;52.476;13.316;2022-12-08T06:21:58;21.13;;;10.70;;
6825;SDS011;3451;52.476;13.316;2022-12-08T06:24:25;20.40;;;10.43;;
6825;SDS011;3451;52.476;13.316;2022-12-08T06:26:51;17.77;;;10.00;;
6825;SDS011;3451;52.476;13.316;2022-12-08T06:29:17;18.47;;;10.37;;
6825;SDS011;3451;52.476;13.316;2022-12-08T06:31:44;18.90;;;10.63;;
6825;SDS011;3451;52.476;13.316;2022-12-08T06:34:10;18.13;;;10.17;;
6825;SDS011;3451;52.476;13.316;2022-12-08T06:36:37;20.90;;;10.80;;
6825;SDS011;3451;52.476;13.316;2022-12-08T06:39:04;17.13;;;10.83;;
6825;SDS011;3451;52.476;13.316;2022-12-08T06:41:30;20.13;;;10.67;;
6825;SDS011;3451;52.476;13.316;2022-12-08T06:43:56;16.47;;;10.03;;
6825;SDS011;3451;52.476;13.316;2022-12-08T06:46:23;14.70;;;9.67;;
6825;SDS011;3451;52.476;13.316;2022-12-08T06:48:49;19.80;;;10.70;;
6825;SDS011;3451;52.476;13.316;2022-12-08T06:51:16;22.03;;;11.50;;
6825;SDS011;3451;52.476;13.316;2022-12-08T06:53:43;18.73;;;10.57;;
6825;SDS011;3451;52.476;13.316;2022-12-08T06:56:10;21.20;;;9.67;;
6825;SDS011;3451;52.476;13.316;2022-12-08T06:58:37;18.03;;;10.93;;
6825;SDS011;3451;52.476;13.316;2022-12-08T07:01:04;17.93;;;10.03;;
6825;SDS011;3451;52.476;13.316;2022-12-08T07:03:30;21.10;;;10.77;;
6825;SDS011;3451;52.476;13.316;2022-12-08T07:05:57;21.30;;;10.40;;
6825;SDS011;3451;52.476;13.316;2022-12-08T07:08:29;16.57;;;9.80;;
6825;SDS011;3451;52.476;13.316;2022-12-08T07:10:56;17.37;;;10.40;;
6825;SDS011;3451;52.476;13.316;2022-12-08T07:13:22;17.37;;;9.33;;
6825;SDS011;3451;52.476;13.316;2022-12-08T07:15:48;15.53;;;9.73;;
6825;SDS011;3451;52.476;13.316;2022-12-08T07:18:15;18.93;;;10.23;;
6825;SDS011;3451;52.476;13.316;2022-12-08T07:20:41;18.50;;;10.27;;
6825;SDS011;3451;52.476;13.316;2022-12-08T07:23:07;19.60;;;9.50;;
6825;SDS011;3451;52.476;13.316;2022-12-08T07:25:33;20.90;;;10.40;;
6825;SDS011;3451;52.476;13.316;2022-12-08T07:28:00;18.93;;;9.83;;
6825;SDS011;3451;52.476;13.316;2022-12-08T07:30:26;18.47;;;10.47;;
6825;SDS011;3451;52.476;13.316;2022-12-08T07:32:52;18.27;;;9.87;;
6825;SDS011;3451;52.476;13.316;2022-12-08T07:35:19;20.30;;;10.13;;
6825;SDS011;3451;52.476;13.316;2022-12-08T07:37:48;18.00;;;10.57;;
6825;SDS011;3451;52.476;13.316;2022-12-08T07:40:14;19.20;;;10.10;;
6825;SDS011;3451;52.476;13.316;2022-12-08T07:42:40;20.50;;;10.27;;
6825;SDS011;3451;52.476;13.316;2022-12-08T07:45:07;16.87;;;9.40;;
6825;SDS011;3451;52.476;13.316;2022-12-08T07:47:33;19.70;;;10.57;;
6825;SDS011;3451;52.476;13.316;2022-12-08T07:49:59;17.37;;;10.40;;
6825;SDS011;3451;52.476;13.316;2022-12-08T07:52:25;20.20;;;10.13;;
6825;SDS011;3451;52.476;13.316;2022-12-08T07:54:52;18.63;;;9.57;;
6825;SDS011;3451;52.476;13.316;2022-12-08T07:57:18;20.90;;;10.10;;
6825;SDS011;3451;52.476;13.316;2022-12-08T07:59:44;17.37;;;9.90;;
6825;SDS011;3451;52.476;13.316;2022-12-08T08:02:14;21.60;;;10.80;;
6825;SDS011;3451;52.476;13.316;2022-12-08T08:04:50;15.13;;;9.60;;
6825;SDS011;3451;52.476;13.316;2022-12-08T08:07:17;19.83;;;10.20;;
6825;SDS011;3451;52.476;13.316;2022-12-08T08:09:43;17.53;;;9.80;;
6825;SDS011;3451;52.476;13.316;2022-12-08T08:12:10;20.80;;;9.97;;
6825;SDS011;3451;52.476;13.316;2022-12-08T08:14:56;19.40;;;9.73;;
6825;SDS011;3451;52.476;13.316;2022-12-08T08:17:23;21.80;;;9.83;;
6825;SDS011;3451;52.476;13.316;2022-12-08T08:19:49;18.20;;;10.07;;
6825;SDS011;3451;52.476;13.316;2022-12-08T08:22:15;19.33;;;10.07;;
6825;SDS011;3451;52.476;13.316;2022-12-08T08:24:41;17.50;;;9.90;;
6825;SDS011;3451;52.476;13.316;2022-12-08T08:27:10;19.53;;;9.90;;
6825;SDS011;3451;52.476;13.316;2022-12-08T08:29:36;21.13;;;10.20;;
6825;SDS011;3451;52.476;13.316;2022-12-08T08:32:03;20.93;;;10.33;;
6825;SDS011;3451;52.476;13.316;2022-12-08T08:34:29;18.87;;;9.87;;
6825;SDS011;3451;52.476;13.316;2022-12-08T08:36:55;15.77;;;10.13;;
6825;SDS011;3451;52.476;13.316;2022-12-08T08:39:22;17.37;;;10.43;;
6825;SDS011;3451;52.476;13.316;2022-12-08T08:41:48;20.40;;;9.97;;
6825;SDS011;3451;52.476;13.316;2022-12-08T08:44:14;16.17;;;9.47;;
6825;SDS011;3451;52.476;13.316;2022-12-08T08:46:40;16.90;;;10.30;;
6825;SDS011;3451;52.476;13.316;2022-12-08T08:49:08;20.00;;;10.93;;
6825;SDS011;3451;52.476;13.316;2022-12-08T08:51:34;16.40;;;10.57;;
6825;SDS011;3451;52.476;13.316;2022-12-08T08:54:00;15.97;;;9.67;;
6825;SDS011;3451;52.476;13.316;2022-12-08T08:56:26;19.07;;;10.27;;
6825;SDS011;3451;52.476;13.316;2022-12-08T08:58:53;15.20;;;9.87;;
6825;SDS011;3451;52.476;13.316;2022-12-08T09:01:26;16.30;;;9.83;;
6825;SDS011;3451;52.476;13.316;2022-12-08T09:03:53;22.33;;;10.67;;
6825;SDS011;3451;52.476;13.316;2022-12-08T09:06:20;20.20;;;10.10;;
6825;SDS011;3451;52.476;13.316;2022-12-08T09:08:46;19.57;;;11.17;;
6825;SDS011;3451;52.476;13.316;2022-12-08T09:11:13;18.93;;;10.37;;
6825;SDS011;3451;52.476;13.316;2022-12-08T09:13:39;16.93;;;9.77;;
6825;SDS011;3451;52.476;13.316;2022-12-08T09:16:06;21.13;;;11.27;;
6825;SDS011;3451;52.476;13.316;2022-12-08T09:18:33;17.17;;;9.50;;
6825;SDS011;3451;52.476;13.316;2022-12-08T09:21:06;15.20;;;9.93;;
6825;SDS011;3451;52.476;13.316;2022-12-08T09:23:34;20.03;;;10.67;;
6825;SDS011;3451;52.476;13.316;2022-12-08T09:26:01;17.63;;;10.70;;
6825;SDS011;3451;52.476;13.316;2022-12-08T09:28:27;17.90;;;11.13;;
6825;SDS011;3451;52.476;13.316;2022-12-08T09:30:54;25.37;;;11.33;;
6825;SDS011;3451;52.476;13.316;2022-12-08T09:33:20;17.43;;;10.77;;
6825;SDS011;3451;52.476;13.316;2022-12-08T09:35:46;16.43;;;10.53;;
6825;SDS011;3451;52.476;13.316;2022-12-08T09:38:13;22.57;;;10.90;;
6825;SDS011;3451;52.476;13.316;2022-12-08T09:40:49;22.60;;;10.37;;
6825;SDS011;3451;52.476;13.316;2022-12-08T09:43:23;17.73;;;10.70;;
6825;SDS011;3451;52.476;13.316;2022-12-08T09:45:51;23.30;;;11.83;;
6825;SDS011;3451;52.476;13.316;2022-12-08T09:48:19;19.27;;;11.03;;
6825;SDS011;3451;52.476;13.316;2022-12-08T09:50:47;20.33;;;10.53;;
6825;SDS011;3451;52.476;13.316;2022-12-08T09:53:20;19.60;;;10.43;;
6825;SDS011;3451;52.476;13.316;2022-12-08T09:55:51;18.83;;;11.33;;
6825;SDS011;3451;52.476;13.316;2022-12-08T10:01:03;18.60;;;10.60;;
6825;SDS011;3451;52.476;13.316;2022-12-08T10:03:30;21.47;;;10.43;;
6825;SDS011;3451;52.476;13.316;2022-12-08T10:06:01;21.67;;;11.10;;
6825;SDS011;3451;52.476;13.316;2022-12-08T10:08:35;14.57;;;9.77;;
6825;SDS011;3451;52.476;13.316;2022-12-08T10:11:08;18.90;;;10.03;;
6825;SDS011;3451;52.476;13.316;2022-12-08T10:13:41;18.13;;;10.70;;
6825;SDS011;3451;52.476;13.316;2022-12-08T10:16:20;14.80;;;9.87;;
6825;SDS011;3451;52.476;13.316;2022-12-08T10:18:56;17.37;;;10.47;;
6825;SDS011;3451;52.476;13.316;2022-12-08T10:21:26;18.43;;;10.07;;
6825;SDS011;3451;52.476;13.316;2022-12-08T10:23:54;15.87;;;9.80;;
6825;SDS011;3451;52.476;13.316;2022-12-08T10:26:23;15.03;;;9.90;;
6825;SDS011;3451;52.476;13.316;2022-12-08T10:28:49;16.70;;;10.50;;
6825;SDS011;3451;52.476;13.316;2022-12-08T10:31:17;17.27;;;10.53;;
6825;SDS011;3451;52.476;13.316;2022-12-08T10:33:52;18.93;;;10.70;;
6825;SDS011;3451;52.476;13.316;2022-12-08T10:36:19;14.20;;;9.60;;
6825;SDS011;3451;52.476;13.316;2022-12-08T10:38:45;15.20;;;9.77;;
6825;SDS011;3451;52.476;13.316;2022-12-08T10:41:13;19.47;;;10.63;;
6825;SDS011;3451;52.476;13.316;2022-12-08T10:43:41;17.77;;;10.37;;
6825;SDS011;3451;52.476;13.316;2022-12-08T10:46:09;17.43;;;9.50;;
6825;SDS011;3451;52.476;13.316;2022-12-08T10:48:36;18.63;;;10.30;;
6825;SDS011;3451;52.476;13.316;2022-12-08T10:51:20;17.93;;;10.33;;
6825;SDS011;3451;52.476;13.316;2022-12-08T10:53:47;17.37;;;9.53;;
6825;SDS011;3451;52.476;13.316;2022-12-08T10:56:14;15.63;;;9.20;;
6825;SDS011;3451;52.476;13.316;2022-12-08T10:58:41;15.93;;;9.03;;
6825;SDS011;3451;52.476;13.316;2022-12-08T11:03:35;12.87;;;8.47;;
6825;SDS011;3451;52.476;13.316;2022-12-08T11:06:08;15.57;;;8.60;;
6825;SDS011;3451;52.476;13.316;2022-12-08T11:08:42;15.13;;;8.90;;
6825;SDS011;3451;52.476;13.316;2022-12-08T11:11:10;12.50;;;8.40;;
6825;SDS011;3451;52.476;13.316;2022-12-08T11:13:37;14.93;;;8.30;;
6825;SDS011;3451;52.476;13.316;2022-12-08T11:16:05;11.33;;;8.03;;
6825;SDS011;3451;52.476;13.316;2022-12-08T11:18:39;14.73;;;8.13;;
6825;SDS011;3451;52.476;13.316;2022-12-08T11:21:07;15.20;;;9.03;;
6825;SDS011;3451;52.476;13.316;2022-12-08T11:23:35;13.37;;;8.70;;
6825;SDS011;3451;52.476;13.316;2022-12-08T11:26:25;14.17;;;8.47;;
6825;SDS011;3451;52.476;13.316;2022-12-08T11:28:48;14.47;;;8.20;;
6825;SDS011;3451;52.476;13.316;2022-12-08T11:31:24;12.53;;;8.23;;
6825;SDS011;3451;52.476;13.316;2022-12-08T11:33:52;15.77;;;8.83;;
6825;SDS011;3451;52.476;13.316;2022-12-08T11:36:19;12.93;;;8.10;;
6825;SDS011;3451;52.476;13.316;2022-12-08T11:38:47;11.83;;;7.83;;
6825;SDS011;3451;52.476;13.316;2022-12-08T11:41:15;15.53;;;8.50;;
6825;SDS011;3451;52.476;13.316;2022-12-08T11:46:22;15.50;;;9.00;;
6825;SDS011;3451;52.476;13.316;2022-12-08T11:48:55;15.30;;;8.70;;
6825;SDS011;3451;52.476;13.316;2022-12-08T11:51:32;15.87;;;8.63;;
6825;SDS011;3451;52.476;13.316;2022-12-08T11:54:13;15.50;;;8.50;;
6825;SDS011;3451;52.476;13.316;2022-12-08T11:56:44;14.17;;;8.57;;
6825;SDS011;3451;52.476;13.316;2022-12-08T11:59:30;12.67;;;8.73;;
6825;SDS011;3451;52.476;13.316;2022-12-08T12:02:01;17.93;;;8.93;;
6825;SDS011;3451;52.476;13.316;2022-12-08T12:04:31;14.87;;;8.70;;
6825;SDS011;3451;52.476;13.316;2022-12-08T12:10:01;16.23;;;8.70;;
6825;SDS011;3451;52.476;13.316;2022-12-08T12:12:40;20.23;;;9.27;;
6825;SDS011;3451;52.476;13.316;2022-12-08T12:17:54;13.33;;;7.90;;
6825;SDS011;3451;52.476;13.316;2022-12-08T12:20:24;13.13;;;7.93;;
6825;SDS011;3451;52.476;13.316;2022-12-08T12:22:55;13.90;;;8.63;;
6825;SDS011;3451;52.476;13.316;2022-12-08T12:25:23;11.03;;;7.33;;
6825;SDS011;3451;52.476;13.316;2022-12-08T12:27:50;12.97;;;7.93;;
6825;SDS011;3451;52.476;13.316;2022-12-08T12:30:23;17.13;;;8.43;;
6825;SDS011;3451;52.476;13.316;2022-12-08T12:32:54;14.50;;;8.83;;
6825;SDS011;3451;52.476;13.316;2022-12-08T12:35:26;14.33;;;8.40;;
6825;SDS011;3451;52.476;13.316;2022-12-08T12:37:57;13.10;;;8.63;;
6825;SDS011;3451;52.476;13.316;2022-12-08T12:40:25;13.47;;;8.77;;
6825;SDS011;3451;52.476;13.316;2022-12-08T13:03:44;13.60;;;9.00;;
6825;SDS011;3451;52.476;13.316;2022-12-08T13:06:12;14.73;;;9.27;;
6825;SDS011;3451;52.476;13.316;2022-12-08T13:08:48;13.93;;;8.60;;
6825;SDS011;3451;52.476;13.316;2022-12-08T13:11:14;13.63;;;8.60;;
6825;SDS011;3451;52.476;13.316;2022-12-08T13:13:58;13.40;;;8.50;;
6825;SDS011;3451;52.476;13.316;2022-12-08T13:16:25;11.53;;;8.23;;
6825;SDS011;3451;52.476;13.316;2022-12-08T13:18:55;13.30;;;8.37;;
6825;SDS011;3451;52.476;13.316;2022-12-08T13:21:22;14.23;;;9.00;;
6825;SDS011;3451;52.476;13.316;2022-12-08T13:23:50;16.10;;;8.80;;
6825;SDS011;3451;52.476;13.316;2022-12-08T13:26:42;16.17;;;8.30;;
6825;SDS011;3451;52.476;13.316;2022-12-08T13:29:13;17.10;;;9.77;;
6825;SDS011;3451;52.476;13.316;2022-12-08T13:34:29;15.07;;;9.50;;
6825;SDS011;3451;52.476;13.316;2022-12-08T13:42:13;15.93;;;9.70;;
6825;SDS011;3451;52.476;13.316;2022-12-08T13:44:45;16.63;;;10.27;;
6825;SDS011;3451;52.476;13.316;2022-12-08T13:47:36;14.50;;;9.80;;
6825;SDS011;3451;52.476;13.316;2022-12-08T13:50:40;14.17;;;9.50;;
6825;SDS011;3451;52.476;13.316;2022-12-08T13:53:28;15.10;;;9.57;;
6825;SDS011;3451;52.476;13.316;2022-12-08T13:56:15;19.50;;;9.67;;
6825;SDS011;3451;52.476;13.316;2022-12-08T14:01:47;14.97;;;9.47;;
6825;SDS011;3451;52.476;13.316;2022-12-08T14:04:15;14.80;;;9.70;;
6825;SDS011;3451;52.476;13.316;2022-12-08T14:07:02;15.23;;;9.50;;
6825;SDS011;3451;52.476;13.316;2022-12-08T14:09:35;15.17;;;9.70;;
6825;SDS011;3451;52.476;13.316;2022-12-08T14:12:05;14.80;;;9.40;;
6825;SDS011;3451;52.476;13.316;2022-12-08T14:14:35;14.93;;;10.07;;
6825;SDS011;3451;52.476;13.316;2022-12-08T14:17:23;15.83;;;9.70;;
6825;SDS011;3451;52.476;13.316;2022-12-08T14:19:59;16.13;;;9.70;;
6825;SDS011;3451;52.476;13.316;2022-12-08T14:22:36;12.33;;;8.43;;
6825;SDS011;3451;52.476;13.316;2022-12-08T14:25:03;13.17;;;8.53;;
6825;SDS011;3451;52.476;13.316;2022-12-08T14:27:31;13.83;;;8.10;;
6825;SDS011;3451;52.476;13.316;2022-12-08T14:30:04;13.10;;;8.70;;
6825;SDS011;3451;52.476;13.316;2022-12-08T14:37:35;13.40;;;8.30;;
6825;SDS011;3451;52.476;13.316;2022-12-08T14:40:05;12.97;;;8.20;;
6825;SDS011;3451;52.476;13.316;2022-12-08T14:42:41;11.90;;;8.53;;
6825;SDS011;3451;52.476;13.316;2022-12-08T14:45:09;15.93;;;9.23;;
6825;SDS011;3451;52.476;13.316;2022-12-08T14:47:35;13.23;;;8.47;;
6825;SDS011;3451;52.476;13.316;2022-12-08T14:50:02;14.63;;;9.23;;
6825;SDS011;3451;52.476;13.316;2022-12-08T14:52:31;14.70;;;9.60;;
6825;SDS011;3451;52.476;13.316;2022-12-08T14:55:00;13.57;;;8.27;;
6825;SDS011;3451;52.476;13.316;2022-12-08T14:57:28;12.93;;;8.30;;
6825;SDS011;3451;52.476;13.316;2022-12-08T14:59:56;13.57;;;8.33;;
6825;SDS011;3451;52.476;13.316;2022-12-08T15:02:29;12.70;;;7.93;;
6825;SDS011;3451;52.476;13.316;2022-12-08T15:05:03;14.33;;;8.70;;
6825;SDS011;3451;52.476;13.316;2022-12-08T15:07:33;12.27;;;7.80;;
6825;SDS011;3451;52.476;13.316;2022-12-08T15:12:55;12.07;;;7.87;;
6825;SDS011;3451;52.476;13.316;2022-12-08T15:15:22;12.73;;;7.90;;
6825;SDS011;3451;52.476;13.316;2022-12-08T15:17:49;11.97;;;7.40;;
6825;SDS011;3451;52.476;13.316;2022-12-08T15:23:00;12.23;;;7.23;;
6825;SDS011;3451;52.476;13.316;2022-12-08T15:25:26;11.00;;;7.10;;
6825;SDS011;3451;52.476;13.316;2022-12-08T15:27:53;10.40;;;7.10;;
6825;SDS011;3451;52.476;13.316;2022-12-08T15:30:21;10.20;;;6.57;;
6825;SDS011;3451;52.476;13.316;2022-12-08T15:32:47;10.27;;;6.90;;
6825;SDS011;3451;52.476;13.316;2022-12-08T15:35:17;11.77;;;6.53;;
6825;SDS011;3451;52.476;13.316;2022-12-08T15:37:43;11.30;;;7.00;;
6825;SDS011;3451;52.476;13.316;2022-12-08T15:40:14;10.77;;;7.23;;
6825;SDS011;3451;52.476;13.316;2022-12-08T15:42:41;8.93;;;6.13;;
6825;SDS011;3451;52.476;13.316;2022-12-08T15:45:10;13.93;;;6.97;;
6825;SDS011;3451;52.476;13.316;2022-12-08T15:47:37;11.27;;;6.50;;
6825;SDS011;3451;52.476;13.316;2022-12-08T15:50:03;11.03;;;6.33;;
6825;SDS011;3451;52.476;13.316;2022-12-08T15:52:30;10.20;;;6.73;;
6825;SDS011;3451;52.476;13.316;2022-12-08T15:54:57;8.53;;;6.40;;
6825;SDS011;3451;52.476;13.316;2022-12-08T15:57:27;10.00;;;6.50;;
6825;SDS011;3451;52.476;13.316;2022-12-08T16:03:08;11.53;;;6.93;;
6825;SDS011;3451;52.476;13.316;2022-12-08T16:06:03;11.60;;;7.10;;
6825;SDS011;3451;52.476;13.316;2022-12-08T16:08:49;11.13;;;7.03;;
6825;SDS011;3451;52.476;13.316;2022-12-08T16:11:35;10.23;;;7.17;;
6825;SDS011;3451;52.476;13.316;2022-12-08T16:14:37;12.10;;;7.33;;
6825;SDS011;3451;52.476;13.316;2022-12-08T16:17:23;11.73;;;7.43;;
6825;SDS011;3451;52.476;13.316;2022-12-08T16:19:50;9.87;;;7.23;;
6825;SDS011;3451;52.476;13.316;2022-12-08T16:22:17;10.33;;;7.27;;